Time,TemperatureF,DewpointF,PressureIn,WindDirection,WindDirectionDegrees,WindSpeedMPH,WindSpeedGustMPH,Humidity,HourlyPrecipIn,Conditions,Clouds,dailyrainin,SolarRadiationWatts/m^2,SoftwareType,DateUTC
2013-09-29 00:00:00,74.9,72.4,29.93,SSW,192,0.0,3.0,92,0.00,,BKN060,0.16,0.00,VWS V14.01,2013-09-29 04:00:00,
2013-09-29 00:01:00,74.9,72.4,29.93,SSW,192,0.0,0.0,92,0.00,,BKN060,0.00,0.00,VWS V14.01,2013-09-29 04:01:00,
2013-09-29 00:05:00,74.8,72.3,29.93,SW,229,4.0,4.0,92,0.00,,CLR,0.00,0.00,VWS V14.01,2013-09-29 04:05:00,
2013-09-29 00:06:00,74.8,72.3,29.92,WSW,238,2.0,4.0,92,0.00,,BKN060,0.00,0.00,VWS V14.01,2013-09-29 04:06:00,
2013-09-29 00:10:00,74.8,72.3,29.93,SW,219,0.0,4.0,92,0.00,,CLR,0.00,0.00,VWS V14.01,2013-09-29 04:10:00,
2013-09-29 00:11:00,74.7,72.2,29.93,SSW,213,0.0,1.0,92,0.00,,BKN060,0.00,0.00,VWS V14.01,2013-09-29 04:11:00,
2013-09-29 00:15:00,74.6,72.1,29.93,SW,216,1.0,2.0,92,0.00,,CLR,0.00,0.00,VWS V14.01,2013-09-29 04:15:00,
2013-09-29 00:16:00,74.6,72.1,29.93,SW,225,0.0,3.0,92,0.00,,BKN060,0.00,0.00,VWS V14.01,2013-09-29 04:16:00,
2013-09-29 00:20:00,74.4,71.9,29.92,SW,222,0.0,4.0,92,0.00,,CLR,0.00,0.00,VWS V14.01,2013-09-29 04:20:00,
2013-09-29 00:21:00,74.4,71.9,29.92,SW,222,0.0,2.0,92,0.00,,BKN060,0.00,0.00,VWS V14.01,2013-09-29 04:21:00,
2013-09-29 00:25:00,74.3,71.8,29.92,SSW,203,1.0,4.0,92,0.00,,CLR,0.00,0.00,VWS V14.01,2013-09-29 04:25:00,
2013-09-29 00:26:00,74.3,71.8,29.92,SSW,203,0.0,1.0,92,0.00,,BKN060,0.00,0.00,VWS V14.01,2013-09-29 04:26:00,
2013-09-29 00:30:00,74.2,72.1,29.92,SSW,203,0.0,2.0,93,0.00,,CLR,0.00,0.00,VWS V14.01,2013-09-29 04:30:00,
2013-09-29 00:31:00,74.2,72.1,29.92,SSW,203,0.0,1.0,93,0.00,,BKN060,0.00,0.00,VWS V14.01,2013-09-29 04:31:00,
2013-09-29 00:35:00,74.2,72.1,29.92,SSW,203,0.0,1.0,93,0.00,,CLR,0.00,0.00,VWS V14.01,2013-09-29 04:35:00,
2013-09-29 00:36:00,74.2,72.1,29.92,SSW,203,0.0,0.0,93,0.00,,BKN060,0.00,0.00,VWS V14.01,2013-09-29 04:36:00,
2013-09-29 00:40:00,74.1,71.9,29.92,SSW,203,0.0,1.0,93,0.00,,CLR,0.00,0.00,VWS V14.01,2013-09-29 04:40:00,
2013-09-29 00:41:00,74.1,71.9,29.92,SSW,204,0.0,0.0,93,0.00,,BKN060,0.00,0.00,VWS V14.01,2013-09-29 04:41:00,
2013-09-29 00:45:00,74.0,71.8,29.92,SSW,203,0.0,1.0,93,0.00,,CLR,0.00,0.00,VWS V14.01,2013-09-29 04:45:00,
2013-09-29 00:46:00,74.0,71.8,29.92,SSW,204,0.0,0.0,93,0.00,,BKN060,0.00,0.00,VWS V14.01,2013-09-29 04:46:00,
2013-09-29 00:50:00,74.0,71.8,29.91,SSW,204,0.0,0.0,93,0.00,,CLR,0.00,0.00,VWS V14.01,2013-09-29 04:50:00,
2013-09-29 00:51:00,74.0,71.8,29.91,SSW,203,0.0,0.0,93,0.00,,BKN060,0.00,0.00,VWS V14.01,2013-09-29 04:51:00,
2013-09-29 00:55:00,74.0,71.8,29.91,SSW,204,0.0,1.0,93,0.00,,CLR,0.00,0.00,VWS V14.01,2013-09-29 04:55:00,
2013-09-29 00:56:00,74.0,71.8,29.91,SSW,203,0.0,0.0,93,0.00,,BKN060,0.00,0.00,VWS V14.01,2013-09-29 04:56:00,
2013-09-29 01:00:00,74.1,71.9,29.91,SSW,203,0.0,0.0,93,0.00,,CLR,0.00,0.00,VWS V14.01,2013-09-29 05:00:00,
2013-09-29 01:01:00,74.1,71.9,29.91,SSW,203,0.0,0.0,93,0.00,,BKN060,0.00,0.00,VWS V14.01,2013-09-29 05:01:00,
2013-09-29 01:05:00,74.1,71.9,29.91,SSW,203,0.0,0.0,93,0.00,,CLR,0.00,0.00,VWS V14.01,2013-09-29 05:05:00,
2013-09-29 01:06:00,74.1,71.9,29.91,SSW,203,0.0,0.0,93,0.00,,BKN060,0.00,0.00,VWS V14.01,2013-09-29 05:06:00,
2013-09-29 01:10:00,74.1,71.9,29.90,SSW,204,0.0,0.0,93,0.00,,CLR,0.00,0.00,VWS V14.01,2013-09-29 05:10:00,
2013-09-29 01:11:00,74.1,71.9,29.90,SSW,203,0.0,0.0,93,0.00,,BKN060,0.00,0.00,VWS V14.01,2013-09-29 05:11:00,
2013-09-29 01:15:00,74.3,72.5,29.90,SSW,203,0.0,0.0,94,0.00,,CLR,0.00,0.00,VWS V14.01,2013-09-29 05:15:00,
2013-09-29 01:16:00,74.3,72.5,29.90,SSW,203,0.0,0.0,94,0.00,,BKN060,0.00,0.00,VWS V14.01,2013-09-29 05:16:00,
2013-09-29 01:20:00,74.3,72.2,29.90,SSW,204,0.0,0.0,93,0.00,,CLR,0.00,0.00,VWS V14.01,2013-09-29 05:20:00,
2013-09-29 01:21:00,74.3,72.2,29.90,SSW,204,0.0,0.0,93,0.00,,BKN060,0.00,0.00,VWS V14.01,2013-09-29 05:21:00,
2013-09-29 01:25:00,74.4,72.2,29.90,SSW,204,0.0,0.0,93,0.00,,CLR,0.00,0.00,VWS V14.01,2013-09-29 05:25:00,
2013-09-29 01:26:00,74.4,72.2,29.90,SSW,204,0.0,0.0,93,0.00,,BKN060,0.00,0.00,VWS V14.01,2013-09-29 05:26:00,
2013-09-29 01:30:00,74.4,72.6,29.90,SSW,204,0.0,0.0,94,0.00,,CLR,0.00,0.00,VWS V14.01,2013-09-29 05:30:00,
2013-09-29 01:31:00,74.4,72.6,29.90,SSW,204,0.0,0.0,94,0.00,,BKN060,0.00,0.00,VWS V14.01,2013-09-29 05:31:00,
2013-09-29 01:35:00,74.4,72.6,29.90,SSW,204,0.0,0.0,94,0.00,,CLR,0.00,0.00,VWS V14.01,2013-09-29 05:35:00,
2013-09-29 01:36:00,74.5,72.7,29.90,SSW,204,0.0,0.0,94,0.00,,BKN060,0.00,0.00,VWS V14.01,2013-09-29 05:36:00,
2013-09-29 01:40:00,74.5,72.7,29.90,SSW,204,0.0,0.0,94,0.00,,CLR,0.00,0.00,VWS V14.01,2013-09-29 05:40:00,
2013-09-29 01:41:00,74.4,72.6,29.90,SSW,204,0.0,0.0,94,0.00,,BKN060,0.00,0.00,VWS V14.01,2013-09-29 05:41:00,
2013-09-29 01:45:00,74.6,72.8,29.90,SSW,204,0.0,0.0,94,0.00,,CLR,0.00,0.00,VWS V14.01,2013-09-29 05:45:00,
2013-09-29 01:46:00,74.6,72.8,29.90,SSW,204,0.0,0.0,94,0.00,,BKN060,0.00,0.00,VWS V14.01,2013-09-29 05:46:00,
2013-09-29 01:50:00,74.6,72.8,29.90,SSW,204,0.0,0.0,94,0.00,,CLR,0.00,0.00,VWS V14.01,2013-09-29 05:50:00,
2013-09-29 01:51:00,74.5,72.7,29.90,SSW,204,0.0,0.0,94,0.00,,BKN060,0.00,0.00,VWS V14.01,2013-09-29 05:51:00,
2013-09-29 01:55:00,74.3,72.5,29.90,SSW,204,0.0,0.0,94,0.00,,CLR,0.00,0.00,VWS V14.01,2013-09-29 05:55:00,
2013-09-29 01:56:00,74.3,72.5,29.90,SSW,204,0.0,0.0,94,0.00,,BKN060,0.00,0.00,VWS V14.01,2013-09-29 05:56:00,
2013-09-29 02:00:00,74.2,72.4,29.90,SSW,204,0.0,0.0,94,0.00,,CLR,0.00,0.00,VWS V14.01,2013-09-29 06:00:00,
2013-09-29 02:01:00,74.2,72.4,29.89,SSW,204,0.0,0.0,94,0.00,,BKN060,0.00,0.00,VWS V14.01,2013-09-29 06:01:00,
2013-09-29 02:05:00,74.0,72.2,29.90,SSW,204,0.0,0.0,94,0.00,,CLR,0.00,0.00,VWS V14.01,2013-09-29 06:05:00,
2013-09-29 02:06:00,74.0,72.2,29.90,SSW,204,0.0,0.0,94,0.00,,BKN060,0.00,0.00,VWS V14.01,2013-09-29 06:06:00,
2013-09-29 02:10:00,74.1,72.3,29.89,SSW,204,0.0,0.0,94,0.00,,CLR,0.00,0.00,VWS V14.01,2013-09-29 06:10:00,
2013-09-29 02:11:00,74.1,72.3,29.90,SSW,204,0.0,0.0,94,0.00,,BKN060,0.00,0.00,VWS V14.01,2013-09-29 06:11:00,
2013-09-29 02:15:00,74.0,72.2,29.89,SSW,204,0.0,0.0,94,0.00,,CLR,0.00,0.00,VWS V14.01,2013-09-29 06:15:00,
2013-09-29 02:16:00,74.0,72.2,29.89,SSW,204,0.0,0.0,94,0.00,,BKN060,0.00,0.00,VWS V14.01,2013-09-29 06:16:00,
2013-09-29 02:20:00,74.0,72.2,29.89,SSW,204,0.0,0.0,94,0.00,,CLR,0.00,0.00,VWS V14.01,2013-09-29 06:20:00,
2013-09-29 02:21:00,74.0,72.2,29.89,SSW,204,0.0,0.0,94,0.00,,BKN060,0.00,0.00,VWS V14.01,2013-09-29 06:21:00,
2013-09-29 02:25:00,74.0,72.2,29.89,SSW,204,0.0,0.0,94,0.00,,CLR,0.00,0.00,VWS V14.01,2013-09-29 06:25:00,
2013-09-29 02:26:00,74.0,72.2,29.89,SSW,204,0.0,0.0,94,0.00,,BKN060,0.00,0.00,VWS V14.01,2013-09-29 06:26:00,
2013-09-29 02:30:00,73.9,72.1,29.89,SSW,204,0.0,0.0,94,0.00,,CLR,0.00,0.00,VWS V14.01,2013-09-29 06:30:00,
2013-09-29 02:31:00,74.0,72.2,29.89,SSW,204,0.0,0.0,94,0.00,,BKN060,0.00,0.00,VWS V14.01,2013-09-29 06:31:00,
2013-09-29 02:35:00,74.2,72.4,29.89,SSW,204,0.0,0.0,94,0.00,,CLR,0.00,0.00,VWS V14.01,2013-09-29 06:35:00,
2013-09-29 02:36:00,74.2,72.4,29.89,SSW,204,0.0,0.0,94,0.00,,BKN060,0.00,0.00,VWS V14.01,2013-09-29 06:36:00,
2013-09-29 02:40:00,74.1,72.6,29.89,SSW,204,0.0,0.0,95,0.00,,CLR,0.00,0.00,VWS V14.01,2013-09-29 06:40:00,
2013-09-29 02:41:00,74.1,72.6,29.89,SSW,204,0.0,0.0,95,0.00,,BKN060,0.00,0.00,VWS V14.01,2013-09-29 06:41:00,
2013-09-29 02:45:00,74.1,72.6,29.88,SSW,204,0.0,0.0,95,0.00,,CLR,0.00,0.00,VWS V14.01,2013-09-29 06:45:00,
2013-09-29 02:46:00,74.1,72.6,29.88,SSW,204,0.0,0.0,95,0.00,,BKN060,0.00,0.00,VWS V14.01,2013-09-29 06:46:00,
2013-09-29 02:50:00,74.0,72.5,29.88,SSW,204,0.0,0.0,95,0.00,,CLR,0.00,0.00,VWS V14.01,2013-09-29 06:50:00,
2013-09-29 02:51:00,74.1,72.6,29.88,SSW,204,0.0,0.0,95,0.00,,BKN060,0.00,0.00,VWS V14.01,2013-09-29 06:51:00,
2013-09-29 02:55:00,74.2,72.7,29.88,SSW,204,0.0,0.0,95,0.00,,CLR,0.00,0.00,VWS V14.01,2013-09-29 06:55:00,
2013-09-29 02:56:00,74.2,72.7,29.88,SSW,204,0.0,0.0,95,0.00,,BKN060,0.00,0.00,VWS V14.01,2013-09-29 06:56:00,
2013-09-29 03:00:00,74.2,72.7,29.88,SSW,204,0.0,0.0,95,0.00,,CLR,0.00,0.00,VWS V14.01,2013-09-29 07:00:00,
2013-09-29 03:01:00,74.2,72.7,29.88,SSW,204,0.0,0.0,95,0.00,,BKN060,0.00,0.00,VWS V14.01,2013-09-29 07:01:00,
2013-09-29 03:05:00,74.3,72.8,29.88,SSW,204,0.0,0.0,95,0.00,,CLR,0.00,0.00,VWS V14.01,2013-09-29 07:05:00,
2013-09-29 03:06:00,74.3,72.8,29.88,SSW,204,0.0,0.0,95,0.00,,BKN060,0.00,0.00,VWS V14.01,2013-09-29 07:06:00,
2013-09-29 03:10:00,74.2,72.7,29.88,SSW,204,0.0,0.0,95,0.00,,CLR,0.00,0.00,VWS V14.01,2013-09-29 07:10:00,
2013-09-29 03:11:00,74.2,72.7,29.88,SSW,204,0.0,0.0,95,0.00,,BKN060,0.00,0.00,VWS V14.01,2013-09-29 07:11:00,
2013-09-29 03:15:00,74.1,72.6,29.88,SSW,204,0.0,0.0,95,0.00,,CLR,0.00,0.00,VWS V14.01,2013-09-29 07:15:00,
2013-09-29 03:16:00,74.2,72.7,29.88,SSW,204,0.0,0.0,95,0.00,,BKN060,0.00,0.00,VWS V14.01,2013-09-29 07:16:00,
2013-09-29 03:20:00,74.2,72.7,29.88,SSW,204,1.0,1.0,95,0.00,,CLR,0.00,0.00,VWS V14.01,2013-09-29 07:20:00,
2013-09-29 03:21:00,74.2,72.7,29.88,SSW,208,0.0,2.0,95,0.00,,BKN060,0.00,0.00,VWS V14.01,2013-09-29 07:21:00,
2013-09-29 03:25:00,74.2,72.7,29.88,WSW,256,1.0,3.0,95,0.00,,CLR,0.00,0.00,VWS V14.01,2013-09-29 07:25:00,
2013-09-29 03:26:00,74.2,72.7,29.88,WSW,256,1.0,2.0,95,0.00,,BKN060,0.00,0.00,VWS V14.01,2013-09-29 07:26:00,
2013-09-29 03:30:00,74.3,72.8,29.88,WSW,257,0.0,3.0,95,0.00,,CLR,0.00,0.00,VWS V14.01,2013-09-29 07:30:00,
2013-09-29 03:31:00,74.3,72.8,29.88,WSW,257,2.0,2.0,95,0.00,,BKN060,0.00,0.00,VWS V14.01,2013-09-29 07:31:00,
2013-09-29 03:35:00,74.3,72.8,29.88,West,259,0.0,3.0,95,0.00,,CLR,0.00,0.00,VWS V14.01,2013-09-29 07:35:00,
2013-09-29 03:36:00,74.3,72.8,29.88,West,259,0.0,0.0,95,0.00,,BKN060,0.00,0.00,VWS V14.01,2013-09-29 07:36:00,
2013-09-29 03:40:00,74.3,72.8,29.88,West,259,0.0,0.0,95,0.00,,CLR,0.00,0.00,VWS V14.01,2013-09-29 07:40:00,
2013-09-29 03:41:00,74.3,72.8,29.88,West,259,0.0,0.0,95,0.00,,BKN060,0.00,0.00,VWS V14.01,2013-09-29 07:41:00,
2013-09-29 03:45:00,74.3,72.8,29.88,West,259,0.0,1.0,95,0.00,,CLR,0.00,0.00,VWS V14.01,2013-09-29 07:45:00,
2013-09-29 03:46:00,74.3,72.8,29.88,West,259,0.0,0.0,95,0.00,,BKN060,0.00,0.00,VWS V14.01,2013-09-29 07:46:00,
2013-09-29 03:50:00,74.5,73.0,29.88,West,259,0.0,1.0,95,0.00,,CLR,0.00,0.00,VWS V14.01,2013-09-29 07:50:00,
2013-09-29 03:51:00,74.5,73.0,29.88,West,259,0.0,0.0,95,0.00,,BKN060,0.00,0.00,VWS V14.01,2013-09-29 07:51:00,
2013-09-29 03:55:00,74.6,73.1,29.87,West,259,0.0,0.0,95,0.00,,CLR,0.00,0.00,VWS V14.01,2013-09-29 07:55:00,
2013-09-29 03:56:00,74.6,73.1,29.88,West,259,0.0,0.0,95,0.00,,BKN060,0.00,0.00,VWS V14.01,2013-09-29 07:56:00,
2013-09-29 04:00:00,74.6,73.1,29.88,West,259,0.0,0.0,95,0.00,,CLR,0.00,0.00,VWS V14.01,2013-09-29 08:00:00,
2013-09-29 04:01:00,74.6,73.1,29.87,West,259,0.0,0.0,95,0.00,,BKN060,0.00,0.00,VWS V14.01,2013-09-29 08:01:00,
2013-09-29 04:05:00,74.6,73.1,29.88,West,259,0.0,1.0,95,0.00,,CLR,0.00,0.00,VWS V14.01,2013-09-29 08:05:00,
2013-09-29 04:06:00,74.6,73.1,29.87,West,259,0.0,1.0,95,0.00,,BKN060,0.00,0.00,VWS V14.01,2013-09-29 08:06:00,
2013-09-29 04:10:00,74.6,73.1,29.88,West,259,0.0,2.0,95,0.00,,CLR,0.00,0.00,VWS V14.01,2013-09-29 08:10:00,
2013-09-29 04:11:00,74.6,73.1,29.88,West,259,0.0,1.0,95,0.00,,BKN060,0.00,0.00,VWS V14.01,2013-09-29 08:11:00,
2013-09-29 04:15:00,74.5,73.0,29.88,West,259,1.0,2.0,95,0.00,,CLR,0.00,0.00,VWS V14.01,2013-09-29 08:15:00,
2013-09-29 04:16:00,74.5,73.0,29.88,West,259,0.0,1.0,95,0.00,,BKN060,0.00,0.00,VWS V14.01,2013-09-29 08:16:00,
2013-09-29 04:20:00,74.4,72.9,29.88,West,259,0.0,1.0,95,0.00,,CLR,0.00,0.00,VWS V14.01,2013-09-29 08:20:00,
2013-09-29 04:21:00,74.4,72.9,29.88,West,259,0.0,0.0,95,0.00,,BKN060,0.00,0.00,VWS V14.01,2013-09-29 08:21:00,
2013-09-29 04:25:00,74.4,72.9,29.88,West,259,0.0,0.0,95,0.00,,CLR,0.00,0.00,VWS V14.01,2013-09-29 08:25:00,
2013-09-29 04:26:00,74.4,72.9,29.88,West,259,0.0,0.0,95,0.00,,BKN060,0.00,0.00,VWS V14.01,2013-09-29 08:26:00,
2013-09-29 04:30:00,74.4,72.9,29.88,West,259,0.0,1.0,95,0.00,,CLR,0.00,0.00,VWS V14.01,2013-09-29 08:30:00,
2013-09-29 04:31:00,74.3,72.8,29.88,West,259,0.0,1.0,95,0.00,,BKN060,0.00,0.00,VWS V14.01,2013-09-29 08:31:00,
2013-09-29 04:35:00,74.3,72.8,29.88,West,259,0.0,1.0,95,0.00,,CLR,0.00,0.00,VWS V14.01,2013-09-29 08:35:00,
2013-09-29 04:36:00,74.3,72.8,29.88,West,259,0.0,0.0,95,0.00,,BKN060,0.00,0.00,VWS V14.01,2013-09-29 08:36:00,
2013-09-29 04:40:00,74.2,72.7,29.88,West,259,0.0,1.0,95,0.00,,CLR,0.00,0.00,VWS V14.01,2013-09-29 08:40:00,
2013-09-29 04:41:00,74.2,72.7,29.88,West,259,0.0,0.0,95,0.00,,BKN060,0.00,0.00,VWS V14.01,2013-09-29 08:41:00,
2013-09-29 04:45:00,74.1,72.6,29.88,West,259,1.0,1.0,95,0.00,,CLR,0.00,0.00,VWS V14.01,2013-09-29 08:45:00,
2013-09-29 04:46:00,74.1,72.6,29.88,West,259,0.0,1.0,95,0.00,,BKN060,0.00,0.00,VWS V14.01,2013-09-29 08:46:00,
2013-09-29 04:50:00,74.0,72.5,29.88,West,259,0.0,1.0,95,0.00,,CLR,0.00,0.00,VWS V14.01,2013-09-29 08:50:00,
2013-09-29 04:51:00,74.0,72.5,29.88,West,259,0.0,0.0,95,0.00,,BKN060,0.00,0.00,VWS V14.01,2013-09-29 08:51:00,
2013-09-29 04:55:00,74.0,72.5,29.88,West,259,0.0,0.0,95,0.00,,CLR,0.00,0.00,VWS V14.01,2013-09-29 08:55:00,
2013-09-29 04:56:00,74.0,72.5,29.88,West,259,0.0,0.0,95,0.00,,BKN060,0.00,0.00,VWS V14.01,2013-09-29 08:56:00,
2013-09-29 05:00:00,74.1,72.6,29.88,West,259,0.0,0.0,95,0.00,,CLR,0.00,0.00,VWS V14.01,2013-09-29 09:00:00,
2013-09-29 05:01:00,74.1,72.6,29.88,West,259,0.0,0.0,95,0.00,,BKN060,0.00,0.00,VWS V14.01,2013-09-29 09:01:00,
2013-09-29 05:05:00,74.2,72.7,29.88,West,259,0.0,0.0,95,0.00,,CLR,0.00,0.00,VWS V14.01,2013-09-29 09:05:00,
2013-09-29 05:06:00,74.2,72.7,29.88,West,259,0.0,0.0,95,0.00,,BKN060,0.00,0.00,VWS V14.01,2013-09-29 09:06:00,
2013-09-29 05:10:00,74.2,72.7,29.88,West,259,0.0,0.0,95,0.00,,CLR,0.00,0.00,VWS V14.01,2013-09-29 09:10:00,
2013-09-29 05:11:00,74.3,72.8,29.88,West,259,0.0,0.0,95,0.00,,BKN060,0.00,0.00,VWS V14.01,2013-09-29 09:11:00,
2013-09-29 05:15:00,74.2,72.7,29.88,West,259,1.0,2.0,95,0.00,,CLR,0.00,0.00,VWS V14.01,2013-09-29 09:15:00,
2013-09-29 05:16:00,74.2,72.7,29.88,West,259,1.0,1.0,95,0.00,,BKN060,0.00,0.00,VWS V14.01,2013-09-29 09:16:00,
2013-09-29 05:20:00,74.1,72.6,29.89,West,259,1.0,2.0,95,0.00,,CLR,0.00,0.00,VWS V14.01,2013-09-29 09:20:00,
2013-09-29 05:21:00,74.1,72.6,29.89,West,259,0.0,1.0,95,0.00,,BKN060,0.00,0.00,VWS V14.01,2013-09-29 09:21:00,
2013-09-29 05:25:00,73.9,72.4,29.89,West,259,0.0,1.0,95,0.00,,CLR,0.00,0.00,VWS V14.01,2013-09-29 09:25:00,
2013-09-29 05:26:00,73.9,72.4,29.89,West,259,1.0,1.0,95,0.00,,BKN060,0.00,0.00,VWS V14.01,2013-09-29 09:26:00,
2013-09-29 05:30:00,73.9,72.4,29.88,West,259,2.0,2.0,95,0.00,,CLR,0.00,0.00,VWS V14.01,2013-09-29 09:30:00,
2013-09-29 05:31:00,73.9,72.4,29.88,West,259,1.0,2.0,95,0.00,,BKN060,0.00,0.00,VWS V14.01,2013-09-29 09:31:00,
2013-09-29 05:35:00,73.8,72.3,29.89,West,259,0.0,2.0,95,0.00,,CLR,0.00,0.00,VWS V14.01,2013-09-29 09:35:00,
2013-09-29 05:36:00,73.8,72.3,29.88,West,259,0.0,0.0,95,0.00,,BKN060,0.00,0.00,VWS V14.01,2013-09-29 09:36:00,
2013-09-29 05:40:00,73.9,72.4,29.89,West,259,0.0,0.0,95,0.00,,CLR,0.00,0.00,VWS V14.01,2013-09-29 09:40:00,
2013-09-29 05:41:00,73.9,72.4,29.89,West,259,0.0,0.0,95,0.00,,BKN060,0.00,0.00,VWS V14.01,2013-09-29 09:41:00,
2013-09-29 05:45:00,74.0,72.5,29.89,West,259,0.0,0.0,95,0.00,,CLR,0.00,0.00,VWS V14.01,2013-09-29 09:45:00,
2013-09-29 05:46:00,74.0,72.5,29.89,West,259,0.0,0.0,95,0.00,,BKN060,0.00,0.00,VWS V14.01,2013-09-29 09:46:00,
2013-09-29 05:50:00,73.8,72.3,29.89,West,259,0.0,0.0,95,0.00,,CLR,0.00,0.00,VWS V14.01,2013-09-29 09:50:00,
2013-09-29 05:51:00,73.7,72.2,29.89,West,259,0.0,0.0,95,0.00,,BKN060,0.00,0.00,VWS V14.01,2013-09-29 09:51:00,
2013-09-29 05:55:00,73.6,72.1,29.89,West,259,0.0,3.0,95,0.00,,CLR,0.00,0.00,VWS V14.01,2013-09-29 09:55:00,
2013-09-29 05:56:00,73.6,72.1,29.89,West,259,0.0,1.0,95,0.00,,BKN060,0.00,0.00,VWS V14.01,2013-09-29 09:56:00,
2013-09-29 06:00:00,73.5,72.0,29.89,West,259,1.0,2.0,95,0.00,,CLR,0.00,0.00,VWS V14.01,2013-09-29 10:00:00,
2013-09-29 06:01:00,73.6,72.1,29.89,West,259,1.0,1.0,95,0.00,,BKN060,0.00,0.00,VWS V14.01,2013-09-29 10:01:00,
2013-09-29 06:05:00,73.6,72.1,29.89,West,259,2.0,3.0,95,0.00,,CLR,0.00,0.00,VWS V14.01,2013-09-29 10:05:00,
2013-09-29 06:06:00,73.6,72.1,29.89,West,259,1.0,2.0,95,0.00,,BKN060,0.00,0.00,VWS V14.01,2013-09-29 10:06:00,
2013-09-29 06:10:00,73.5,72.0,29.89,West,259,1.0,3.0,95,0.00,,CLR,0.00,0.00,VWS V14.01,2013-09-29 10:10:00,
2013-09-29 06:11:00,73.6,72.1,29.89,West,259,1.0,2.0,95,0.00,,BKN060,0.00,0.00,VWS V14.01,2013-09-29 10:11:00,
2013-09-29 06:15:00,73.6,72.1,29.89,West,259,0.0,3.0,95,0.00,,CLR,0.00,0.00,VWS V14.01,2013-09-29 10:15:00,
2013-09-29 06:16:00,73.6,72.1,29.89,West,259,0.0,0.0,95,0.00,,BKN060,0.00,0.00,VWS V14.01,2013-09-29 10:16:00,
2013-09-29 06:20:00,73.7,72.2,29.90,West,259,0.0,0.0,95,0.00,,CLR,0.00,0.00,VWS V14.01,2013-09-29 10:20:00,
2013-09-29 06:21:00,73.7,72.2,29.90,West,259,0.0,0.0,95,0.00,,BKN060,0.00,0.00,VWS V14.01,2013-09-29 10:21:00,
2013-09-29 06:25:00,73.7,72.2,29.90,West,259,0.0,1.0,95,0.00,,CLR,0.00,0.00,VWS V14.01,2013-09-29 10:25:00,
2013-09-29 06:26:00,73.7,72.2,29.90,West,259,1.0,1.0,95,0.00,,BKN060,0.00,0.00,VWS V14.01,2013-09-29 10:26:00,
2013-09-29 06:30:00,73.7,72.2,29.90,West,259,0.0,1.0,95,0.00,,CLR,0.00,0.00,VWS V14.01,2013-09-29 10:30:00,
2013-09-29 06:31:00,73.6,72.1,29.90,West,259,0.0,0.0,95,0.00,,BKN060,0.00,0.00,VWS V14.01,2013-09-29 10:31:00,
2013-09-29 06:35:00,73.6,72.1,29.90,West,259,0.0,0.0,95,0.00,,CLR,0.00,0.00,VWS V14.01,2013-09-29 10:35:00,
2013-09-29 06:36:00,73.6,72.1,29.90,West,259,0.0,0.0,95,0.00,,BKN060,0.00,0.00,VWS V14.01,2013-09-29 10:36:00,
2013-09-29 06:40:00,73.7,72.2,29.90,West,259,0.0,2.0,95,0.00,,CLR,0.00,0.00,VWS V14.01,2013-09-29 10:40:00,
2013-09-29 06:41:00,73.7,72.2,29.90,West,259,0.0,0.0,95,0.00,,BKN060,0.00,0.00,VWS V14.01,2013-09-29 10:41:00,
2013-09-29 06:45:00,73.7,72.2,29.90,West,259,0.0,1.0,95,0.00,,CLR,0.00,0.00,VWS V14.01,2013-09-29 10:45:00,
2013-09-29 06:46:00,73.6,72.1,29.90,West,259,0.0,1.0,95,0.00,,BKN060,0.00,0.00,VWS V14.01,2013-09-29 10:46:00,
2013-09-29 06:50:00,73.6,72.1,29.90,West,259,0.0,1.0,95,0.00,,CLR,0.00,0.00,VWS V14.01,2013-09-29 10:50:00,
2013-09-29 06:51:00,73.6,72.1,29.90,West,259,0.0,0.0,95,0.00,,BKN060,0.00,0.00,VWS V14.01,2013-09-29 10:51:00,
2013-09-29 06:55:00,73.5,72.0,29.90,West,259,0.0,0.0,95,0.00,,CLR,0.00,0.00,VWS V14.01,2013-09-29 10:55:00,
2013-09-29 06:56:00,73.5,72.0,29.90,West,259,0.0,0.0,95,0.00,,BKN060,0.00,0.00,VWS V14.01,2013-09-29 10:56:00,
2013-09-29 07:00:00,73.6,72.1,29.90,West,259,0.0,0.0,95,0.00,,CLR,0.00,0.00,VWS V14.01,2013-09-29 11:00:00,
2013-09-29 07:01:00,73.6,72.1,29.90,West,259,0.0,0.0,95,0.00,,BKN060,0.00,0.00,VWS V14.01,2013-09-29 11:01:00,
2013-09-29 07:05:00,73.5,72.0,29.90,West,259,1.0,2.0,95,0.00,,CLR,0.00,0.00,VWS V14.01,2013-09-29 11:05:00,
2013-09-29 07:06:00,73.5,72.0,29.90,West,259,1.0,2.0,95,0.00,,SCT035,0.00,0.00,VWS V14.01,2013-09-29 11:06:00,
2013-09-29 07:10:00,73.5,72.0,29.90,West,259,2.0,2.0,95,0.00,,CLR,0.00,0.00,VWS V14.01,2013-09-29 11:10:00,
2013-09-29 07:11:00,73.5,72.0,29.90,West,259,0.0,3.0,95,0.00,,SCT035,0.00,0.00,VWS V14.01,2013-09-29 11:11:00,
2013-09-29 07:15:00,73.5,72.0,29.90,West,259,0.0,3.0,95,0.00,,CLR,0.00,5.00,VWS V14.01,2013-09-29 11:15:00,
2013-09-29 07:16:00,73.5,72.0,29.90,West,259,1.0,2.0,95,0.00,,SCT035,0.00,5.00,VWS V14.01,2013-09-29 11:16:00,
2013-09-29 07:20:00,73.4,71.9,29.90,West,259,0.0,2.0,95,0.00,,CLR,0.00,9.00,VWS V14.01,2013-09-29 11:20:00,
2013-09-29 07:21:00,73.4,71.9,29.90,West,259,0.0,2.0,95,0.00,,SCT035,0.00,9.00,VWS V14.01,2013-09-29 11:21:00,
2013-09-29 07:25:00,73.4,71.9,29.90,West,259,0.0,3.0,95,0.00,,CLR,0.00,12.00,VWS V14.01,2013-09-29 11:25:00,
2013-09-29 07:26:00,73.4,71.9,29.90,West,259,1.0,1.0,95,0.00,,SCT035,0.00,14.00,VWS V14.01,2013-09-29 11:26:00,
2013-09-29 07:30:00,73.4,71.9,29.90,West,259,0.0,2.0,95,0.00,,CLR,0.00,19.00,VWS V14.01,2013-09-29 11:30:00,
2013-09-29 07:31:00,73.4,71.9,29.90,West,259,1.0,1.0,95,0.00,,SCT035,0.00,21.00,VWS V14.01,2013-09-29 11:31:00,
2013-09-29 07:35:00,73.5,72.0,29.90,West,259,1.0,3.0,95,0.00,,CLR,0.00,30.00,VWS V14.01,2013-09-29 11:35:00,
2013-09-29 07:36:00,73.6,72.1,29.90,West,259,0.0,1.0,95,0.00,,SCT035,0.00,32.00,VWS V14.01,2013-09-29 11:36:00,
2013-09-29 07:40:00,73.7,72.2,29.91,West,259,1.0,3.0,95,0.00,,CLR,0.00,46.00,VWS V14.01,2013-09-29 11:40:00,
2013-09-29 07:41:00,73.7,72.2,29.91,West,259,1.0,3.0,95,0.00,,SCT035,0.00,47.00,VWS V14.01,2013-09-29 11:41:00,
2013-09-29 07:45:00,73.8,72.3,29.91,WNW,298,0.0,4.0,95,0.00,,CLR,0.00,62.00,VWS V14.01,2013-09-29 11:45:00,
2013-09-29 07:46:00,73.8,72.3,29.91,WNW,302,2.0,3.0,95,0.00,,SCT035,0.00,65.00,VWS V14.01,2013-09-29 11:46:00,
2013-09-29 07:50:00,74.0,72.5,29.91,NNW,327,1.0,4.0,95,0.00,,CLR,0.00,72.00,VWS V14.01,2013-09-29 11:50:00,
2013-09-29 07:51:00,74.0,72.5,29.91,NNW,329,3.0,3.0,95,0.00,,SCT035,0.00,72.00,VWS V14.01,2013-09-29 11:51:00,
2013-09-29 07:55:00,74.1,72.6,29.90,NNW,329,1.0,3.0,95,0.00,,CLR,0.00,77.00,VWS V14.01,2013-09-29 11:55:00,
2013-09-29 07:56:00,74.2,72.7,29.91,NNW,329,2.0,2.0,95,0.00,,FEW034,0.00,79.00,VWS V14.01,2013-09-29 11:56:00,
2013-09-29 08:00:00,74.4,72.9,29.91,NNW,329,1.0,5.0,95,0.00,,CLR,0.00,86.00,VWS V14.01,2013-09-29 12:00:00,
2013-09-29 08:01:00,74.5,73.0,29.91,NNW,329,2.0,2.0,95,0.00,,FEW034,0.00,95.00,VWS V14.01,2013-09-29 12:01:00,
2013-09-29 08:05:00,74.8,73.3,29.91,NNW,333,3.0,4.0,95,0.00,,CLR,0.00,109.00,VWS V14.01,2013-09-29 12:05:00,
2013-09-29 08:06:00,74.7,73.2,29.91,NNW,333,2.0,4.0,95,0.00,,FEW034,0.00,111.00,VWS V14.01,2013-09-29 12:06:00,
2013-09-29 08:10:00,75.1,73.3,29.92,NNW,336,1.0,4.0,94,0.00,,CLR,0.00,111.00,VWS V14.01,2013-09-29 12:10:00,
2013-09-29 08:11:00,75.1,73.3,29.92,NNW,336,3.0,4.0,94,0.00,,FEW034,0.00,111.00,VWS V14.01,2013-09-29 12:11:00,
2013-09-29 08:15:00,75.3,73.5,29.92,NNW,338,1.0,4.0,94,0.00,,CLR,0.00,127.00,VWS V14.01,2013-09-29 12:15:00,
2013-09-29 08:16:00,75.5,73.7,29.92,NNW,338,3.0,3.0,94,0.00,,FEW034,0.00,128.00,VWS V14.01,2013-09-29 12:16:00,
2013-09-29 08:20:00,75.6,73.4,29.92,NNW,340,1.0,4.0,93,0.00,,CLR,0.00,155.00,VWS V14.01,2013-09-29 12:20:00,
2013-09-29 08:21:00,75.7,73.5,29.92,NNW,340,2.0,3.0,93,0.00,,FEW034,0.00,158.00,VWS V14.01,2013-09-29 12:21:00,
2013-09-29 08:25:00,76.0,73.5,29.92,NNW,340,2.0,3.0,92,0.00,,CLR,0.00,178.00,VWS V14.01,2013-09-29 12:25:00,
2013-09-29 08:26:00,76.0,73.5,29.92,NNW,340,1.0,3.0,92,0.00,,FEW034,0.00,179.00,VWS V14.01,2013-09-29 12:26:00,
2013-09-29 08:30:00,76.3,73.5,29.92,NNW,341,0.0,3.0,91,0.00,,CLR,0.00,190.00,VWS V14.01,2013-09-29 12:30:00,
2013-09-29 08:31:00,76.4,73.6,29.92,NNW,342,2.0,3.0,91,0.00,,FEW034,0.00,162.00,VWS V14.01,2013-09-29 12:31:00,
2013-09-29 08:35:00,76.8,74.0,29.92,NNW,342,2.0,3.0,91,0.00,,CLR,0.00,192.00,VWS V14.01,2013-09-29 12:35:00,
2013-09-29 08:36:00,76.8,73.7,29.92,NNW,342,1.0,3.0,90,0.00,,FEW034,0.00,192.00,VWS V14.01,2013-09-29 12:36:00,
2013-09-29 08:40:00,76.9,73.4,29.92,NNW,342,3.0,4.0,89,0.00,,CLR,0.00,199.00,VWS V14.01,2013-09-29 12:40:00,
2013-09-29 08:41:00,77.0,73.2,29.92,NNW,343,4.0,5.0,88,0.00,,FEW034,0.00,200.00,VWS V14.01,2013-09-29 12:41:00,
2013-09-29 08:45:00,77.4,73.6,29.92,NNW,345,3.0,5.0,88,0.00,,CLR,0.00,211.00,VWS V14.01,2013-09-29 12:45:00,
2013-09-29 08:46:00,77.5,73.7,29.92,NNW,345,3.0,4.0,88,0.00,,FEW034,0.00,211.00,VWS V14.01,2013-09-29 12:46:00,
2013-09-29 08:50:00,77.7,73.5,29.92,NNW,346,1.0,4.0,87,0.00,,CLR,0.00,211.00,VWS V14.01,2013-09-29 12:50:00,
2013-09-29 08:52:00,77.7,73.5,29.92,NNW,347,3.0,4.0,87,0.00,,FEW034,0.00,221.00,VWS V14.01,2013-09-29 12:52:00,
2013-09-29 08:55:00,77.8,72.9,29.92,NNW,348,3.0,4.0,85,0.00,,CLR,0.00,232.00,VWS V14.01,2013-09-29 12:55:00,
2013-09-29 08:57:00,77.9,73.0,29.92,NNW,348,3.0,4.0,85,0.00,,FEW034,0.00,236.00,VWS V14.01,2013-09-29 12:57:00,
2013-09-29 09:00:00,78.0,73.5,29.92,North,350,2.0,4.0,86,0.00,,CLR,0.00,248.00,VWS V14.01,2013-09-29 13:00:00,
2013-09-29 09:02:00,78.1,73.6,29.92,North,355,4.0,4.0,86,0.00,,FEW034,0.00,255.00,VWS V14.01,2013-09-29 13:02:00,
2013-09-29 09:05:00,78.4,73.2,29.92,North,355,3.0,4.0,84,0.00,,CLR,0.00,267.00,VWS V14.01,2013-09-29 13:05:00,
2013-09-29 09:07:00,78.4,73.2,29.92,North,355,2.0,4.0,84,0.00,,FEW034,0.00,271.00,VWS V14.01,2013-09-29 13:07:00,
2013-09-29 09:10:00,78.9,73.7,29.92,North,355,2.0,4.0,84,0.00,,CLR,0.00,278.00,VWS V14.01,2013-09-29 13:10:00,
2013-09-29 09:12:00,78.9,73.7,29.92,North,355,1.0,2.0,84,0.00,,FEW034,0.00,285.00,VWS V14.01,2013-09-29 13:12:00,
2013-09-29 09:15:00,79.4,73.1,29.92,North,355,1.0,2.0,81,0.00,,CLR,0.00,297.00,VWS V14.01,2013-09-29 13:15:00,
2013-09-29 09:17:00,79.4,72.7,29.92,North,355,0.0,3.0,80,0.00,,FEW034,0.00,301.00,VWS V14.01,2013-09-29 13:17:00,
2013-09-29 09:20:00,79.7,72.6,29.92,North,355,1.0,3.0,79,0.00,,CLR,0.00,46.00,VWS V14.01,2013-09-29 13:20:00,
2013-09-29 09:22:00,79.9,72.8,29.92,North,355,1.0,2.0,79,0.00,,FEW034,0.00,46.00,VWS V14.01,2013-09-29 13:22:00,
2013-09-29 09:25:00,80.2,72.7,29.93,North,5,3.0,4.0,78,0.00,,CLR,0.00,327.00,VWS V14.01,2013-09-29 13:25:00,
2013-09-29 09:27:00,80.2,72.3,29.92,North,5,2.0,4.0,77,0.00,,FEW034,0.00,332.00,VWS V14.01,2013-09-29 13:27:00,
2013-09-29 09:30:00,80.5,73.0,29.92,North,5,1.0,4.0,78,0.00,,CLR,0.00,352.00,VWS V14.01,2013-09-29 13:30:00,
2013-09-29 09:32:00,80.6,73.1,29.93,North,5,0.0,1.0,78,0.00,,FEW034,0.00,357.00,VWS V14.01,2013-09-29 13:32:00,
2013-09-29 09:35:00,80.9,73.8,29.93,North,5,3.0,3.0,79,0.00,,CLR,0.00,371.00,VWS V14.01,2013-09-29 13:35:00,
2013-09-29 09:37:00,80.8,72.9,29.93,North,5,2.0,4.0,77,0.00,,FEW034,0.00,376.00,VWS V14.01,2013-09-29 13:37:00,
2013-09-29 09:40:00,81.0,72.3,29.93,NNE,16,2.0,5.0,75,0.00,,CLR,0.00,381.00,VWS V14.01,2013-09-29 13:40:00,
2013-09-29 09:42:00,81.2,72.5,29.93,NNE,16,3.0,3.0,75,0.00,,FEW034,0.00,381.00,VWS V14.01,2013-09-29 13:42:00,
2013-09-29 09:45:00,81.3,73.4,29.93,NNE,16,0.0,3.0,77,0.00,,CLR,0.00,383.00,VWS V14.01,2013-09-29 13:45:00,
2013-09-29 09:47:00,81.4,73.1,29.93,NNE,16,2.0,3.0,76,0.00,,FEW040,0.00,387.00,VWS V14.01,2013-09-29 13:47:00,
2013-09-29 09:50:00,81.3,72.2,29.93,NNE,16,1.0,4.0,74,0.00,,CLR,0.00,392.00,VWS V14.01,2013-09-29 13:50:00,
2013-09-29 09:52:00,81.4,72.7,29.93,NNE,17,2.0,3.0,75,0.00,,FEW040,0.00,396.00,VWS V14.01,2013-09-29 13:52:00,
2013-09-29 09:55:00,81.7,72.6,29.93,NNE,19,0.0,4.0,74,0.00,,CLR,0.00,403.00,VWS V14.01,2013-09-29 13:55:00,
2013-09-29 09:57:00,81.8,72.3,29.93,NNE,19,0.0,1.0,73,0.00,,FEW040,0.00,406.00,VWS V14.01,2013-09-29 13:57:00,
2013-09-29 10:00:00,82.3,72.8,29.93,NNE,19,1.0,3.0,73,0.00,,CLR,0.00,417.00,VWS V14.01,2013-09-29 14:00:00,
2013-09-29 10:02:00,82.0,71.7,29.93,NNE,20,1.0,2.0,71,0.00,,FEW040,0.00,420.00,VWS V14.01,2013-09-29 14:02:00,
2013-09-29 10:05:00,82.5,73.0,29.93,NNE,19,1.0,2.0,73,0.00,,CLR,0.00,445.00,VWS V14.01,2013-09-29 14:05:00,
2013-09-29 10:07:00,82.4,72.5,29.93,NNE,20,2.0,2.0,72,0.00,,FEW040,0.00,445.00,VWS V14.01,2013-09-29 14:07:00,
2013-09-29 10:10:00,81.9,72.4,29.93,NNE,22,4.0,6.0,73,0.00,,CLR,0.00,461.00,VWS V14.01,2013-09-29 14:10:00,
2013-09-29 10:12:00,81.8,71.9,29.93,NNE,22,2.0,4.0,72,0.00,,FEW040,0.00,461.00,VWS V14.01,2013-09-29 14:12:00,
2013-09-29 10:15:00,81.7,72.2,29.93,NNE,24,5.0,8.0,73,0.00,,CLR,0.00,610.00,VWS V14.01,2013-09-29 14:15:00,
2013-09-29 10:17:00,81.7,72.2,29.93,NNE,28,1.0,5.0,73,0.00,,FEW040,0.00,174.00,VWS V14.01,2013-09-29 14:17:00,
2013-09-29 10:20:00,81.7,71.4,29.93,NNE,23,5.0,8.0,71,0.00,,CLR,0.00,592.00,VWS V14.01,2013-09-29 14:20:00,
2013-09-29 10:22:00,81.8,71.5,29.93,NE,35,5.0,5.0,71,0.00,,FEW040,0.00,629.00,VWS V14.01,2013-09-29 14:22:00,
2013-09-29 10:25:00,81.9,72.4,29.93,NNE,30,4.0,9.0,73,0.00,,CLR,0.00,144.00,VWS V14.01,2013-09-29 14:25:00,
2013-09-29 10:27:00,81.8,71.5,29.93,NE,37,1.0,4.0,71,0.00,,FEW040,0.00,139.00,VWS V14.01,2013-09-29 14:27:00,
2013-09-29 10:30:00,81.7,71.8,29.93,NE,37,0.0,4.0,72,0.00,,CLR,0.00,195.00,VWS V14.01,2013-09-29 14:30:00,
2013-09-29 10:32:00,81.8,71.9,29.93,NE,37,2.0,3.0,72,0.00,,FEW040,0.00,506.00,VWS V14.01,2013-09-29 14:32:00,
2013-09-29 10:35:00,82.1,72.2,29.93,NE,39,3.0,4.0,72,0.00,,CLR,0.00,123.00,VWS V14.01,2013-09-29 14:35:00,
2013-09-29 10:37:00,82.1,72.2,29.93,NE,41,0.0,3.0,72,0.00,,FEW040,0.00,123.00,VWS V14.01,2013-09-29 14:37:00,
2013-09-29 10:40:00,81.8,71.5,29.93,NE,34,0.0,6.0,71,0.00,,CLR,0.00,213.00,VWS V14.01,2013-09-29 14:40:00,
2013-09-29 10:42:00,81.9,71.6,29.93,NE,34,0.0,3.0,71,0.00,,FEW040,0.00,659.00,VWS V14.01,2013-09-29 14:42:00,
2013-09-29 10:45:00,82.1,71.3,29.93,NNE,15,3.0,6.0,70,0.00,,CLR,0.00,686.00,VWS V14.01,2013-09-29 14:45:00,
2013-09-29 10:47:00,82.2,71.4,29.93,NNE,15,3.0,4.0,70,0.00,,FEW040,0.00,696.00,VWS V14.01,2013-09-29 14:47:00,
2013-09-29 10:50:00,83.1,72.3,29.93,NNE,15,1.0,4.0,70,0.00,,CLR,0.00,680.00,VWS V14.01,2013-09-29 14:50:00,
2013-09-29 10:52:00,83.4,70.4,29.93,SE,124,5.0,5.0,65,0.00,,FEW040,0.00,663.00,VWS V14.01,2013-09-29 14:52:00,
2013-09-29 10:55:00,83.7,71.1,29.93,SSE,149,1.0,5.0,66,0.00,,CLR,0.00,642.00,VWS V14.01,2013-09-29 14:55:00,
2013-09-29 10:57:00,84.2,72.1,29.93,East,80,3.0,4.0,67,0.00,,FEW040,0.00,631.00,VWS V14.01,2013-09-29 14:57:00,
2013-09-29 11:00:00,84.7,72.5,29.93,East,92,3.0,7.0,67,0.00,,CLR,0.00,624.00,VWS V14.01,2013-09-29 15:00:00,
2013-09-29 11:02:00,84.7,72.1,29.93,East,96,3.0,4.0,66,0.00,,CLR,0.00,628.00,VWS V14.01,2013-09-29 15:02:00,
2013-09-29 11:05:00,83.8,71.2,29.93,East,96,2.0,4.0,66,0.00,,CLR,0.00,125.00,VWS V14.01,2013-09-29 15:05:00,
2013-09-29 11:07:00,83.6,71.1,29.93,East,101,1.0,3.0,66,0.00,,CLR,0.00,160.00,VWS V14.01,2013-09-29 15:07:00,
2013-09-29 11:10:00,83.5,71.8,29.93,East,90,1.0,4.0,68,0.00,,CLR,0.00,650.00,VWS V14.01,2013-09-29 15:10:00,
2013-09-29 11:12:00,84.0,71.4,29.93,ESE,110,2.0,3.0,66,0.00,,CLR,0.00,645.00,VWS V14.01,2013-09-29 15:12:00,
2013-09-29 11:15:00,83.9,70.9,29.93,NNE,19,2.0,6.0,65,0.00,,CLR,0.00,612.00,VWS V14.01,2013-09-29 15:15:00,
2013-09-29 11:17:00,83.7,71.6,29.93,NNE,16,2.0,5.0,67,0.00,,CLR,0.00,610.00,VWS V14.01,2013-09-29 15:17:00,
2013-09-29 11:20:00,83.8,71.7,29.93,ENE,57,5.0,6.0,67,0.00,,CLR,0.00,666.00,VWS V14.01,2013-09-29 15:20:00,
2013-09-29 11:22:00,83.7,71.1,29.93,East,91,2.0,5.0,66,0.00,,CLR,0.00,666.00,VWS V14.01,2013-09-29 15:22:00,
2013-09-29 11:25:00,83.8,70.8,29.93,NNE,33,3.0,6.0,65,0.00,,CLR,0.00,652.00,VWS V14.01,2013-09-29 15:25:00,
2013-09-29 11:27:00,83.5,70.1,29.93,NNE,15,5.0,6.0,64,0.00,,CLR,0.00,654.00,VWS V14.01,2013-09-29 15:27:00,
2013-09-29 11:30:00,83.2,69.8,29.93,NNE,15,3.0,6.0,64,0.00,,CLR,0.00,686.00,VWS V14.01,2013-09-29 15:30:00,
2013-09-29 11:32:00,83.4,70.4,29.93,NNE,15,2.0,3.0,65,0.00,,CLR,0.00,675.00,VWS V14.01,2013-09-29 15:32:00,
2013-09-29 11:35:00,83.9,70.4,29.93,ENE,76,5.0,6.0,64,0.00,,CLR,0.00,686.00,VWS V14.01,2013-09-29 15:35:00,
2013-09-29 11:37:00,84.1,70.6,29.93,ENE,75,5.0,5.0,64,0.00,,CLR,0.00,659.00,VWS V14.01,2013-09-29 15:37:00,
2013-09-29 11:40:00,84.1,70.2,29.93,NNE,13,6.0,9.0,63,0.00,,CLR,0.00,633.00,VWS V14.01,2013-09-29 15:40:00,
2013-09-29 11:42:00,84.1,70.2,29.93,ENE,70,2.0,7.0,63,0.00,,CLR,0.00,626.00,VWS V14.01,2013-09-29 15:42:00,
2013-09-29 11:45:00,84.6,70.2,29.93,ESE,102,3.0,7.0,62,0.00,,CLR,0.00,633.00,VWS V14.01,2013-09-29 15:45:00,
2013-09-29 11:47:00,84.8,69.9,29.93,East,97,0.0,4.0,61,0.00,,CLR,0.00,635.00,VWS V14.01,2013-09-29 15:47:00,
2013-09-29 11:50:00,84.8,69.4,29.92,NNE,21,0.0,5.0,60,0.00,,CLR,0.00,661.00,VWS V14.01,2013-09-29 15:50:00,
2013-09-29 11:52:00,85.0,71.0,29.92,ESE,113,2.0,4.0,63,0.00,,CLR,0.00,679.00,VWS V14.01,2013-09-29 15:52:00,
2013-09-29 11:55:00,85.4,69.4,29.93,East,92,4.0,7.0,59,0.00,,CLR,0.00,721.00,VWS V14.01,2013-09-29 15:55:00,
2013-09-29 11:57:00,85.2,69.3,29.93,ENE,76,0.0,4.0,59,0.00,,CLR,0.00,729.00,VWS V14.01,2013-09-29 15:57:00,
2013-09-29 12:00:00,85.5,70.5,29.93,ESE,109,1.0,8.0,61,0.00,,CLR,0.00,763.00,VWS V14.01,2013-09-29 16:00:00,
2013-09-29 12:02:00,85.8,69.8,29.93,ENE,76,4.0,7.0,59,0.00,,CLR,0.00,779.00,VWS V14.01,2013-09-29 16:02:00,
2013-09-29 12:05:00,85.2,69.3,29.93,North,10,3.0,7.0,59,0.00,,CLR,0.00,775.00,VWS V14.01,2013-09-29 16:05:00,
2013-09-29 12:07:00,84.9,70.9,29.93,ENE,76,4.0,8.0,63,0.00,,CLR,0.00,768.00,VWS V14.01,2013-09-29 16:07:00,
2013-09-29 12:10:00,85.2,69.8,29.92,East,82,2.0,8.0,60,0.00,,CLR,0.00,766.00,VWS V14.01,2013-09-29 16:10:00,
2013-09-29 12:12:00,85.0,68.1,29.92,East,84,2.0,4.0,57,0.00,,FEW035,0.00,766.00,VWS V14.01,2013-09-29 16:12:00,
2013-09-29 12:15:00,85.4,69.9,29.92,NE,54,3.0,8.0,60,0.00,,CLR,0.00,765.00,VWS V14.01,2013-09-29 16:15:00,
2013-09-29 12:17:00,85.5,70.5,29.92,North,11,4.0,5.0,61,0.00,,FEW035,0.00,766.00,VWS V14.01,2013-09-29 16:17:00,
2013-09-29 12:20:00,85.6,69.6,29.92,ENE,68,4.0,7.0,59,0.00,,CLR,0.00,779.00,VWS V14.01,2013-09-29 16:20:00,
2013-09-29 12:22:00,85.7,70.2,29.92,East,88,2.0,4.0,60,0.00,,FEW035,0.00,779.00,VWS V14.01,2013-09-29 16:22:00,
2013-09-29 12:25:00,85.7,70.2,29.92,NNE,24,0.0,4.0,60,0.00,,CLR,0.00,784.00,VWS V14.01,2013-09-29 16:25:00,
2013-09-29 12:27:00,85.8,70.3,29.92,East,98,0.0,1.0,60,0.00,,FEW035,0.00,791.00,VWS V14.01,2013-09-29 16:27:00,
2013-09-29 12:30:00,86.0,69.5,29.92,ENE,67,4.0,7.0,58,0.00,,CLR,0.00,807.00,VWS V14.01,2013-09-29 16:30:00,
2013-09-29 12:32:00,85.5,69.1,29.92,NE,51,2.0,4.0,58,0.00,,FEW035,0.00,796.00,VWS V14.01,2013-09-29 16:32:00,
2013-09-29 12:35:00,86.6,71.6,29.92,East,86,1.0,6.0,61,0.00,,CLR,0.00,796.00,VWS V14.01,2013-09-29 16:35:00,
2013-09-29 12:37:00,86.8,71.8,29.92,NE,54,6.0,7.0,61,0.00,,FEW035,0.00,810.00,VWS V14.01,2013-09-29 16:37:00,
2013-09-29 12:40:00,85.9,70.4,29.92,NE,49,0.0,7.0,60,0.00,,CLR,0.00,810.00,VWS V14.01,2013-09-29 16:40:00,
2013-09-29 12:42:00,85.6,69.6,29.92,NE,41,1.0,5.0,59,0.00,,FEW035,0.00,807.00,VWS V14.01,2013-09-29 16:42:00,
2013-09-29 12:45:00,85.9,70.4,29.92,NE,53,9.0,9.0,60,0.00,,CLR,0.00,816.00,VWS V14.01,2013-09-29 16:45:00,
2013-09-29 12:47:00,85.7,69.7,29.92,ENE,69,0.0,9.0,59,0.00,,FEW035,0.00,819.00,VWS V14.01,2013-09-29 16:47:00,
2013-09-29 12:50:00,85.2,69.3,29.91,NE,56,1.0,9.0,59,0.00,,CLR,0.00,838.00,VWS V14.01,2013-09-29 16:50:00,
2013-09-29 12:52:00,85.2,69.8,29.91,NE,55,1.0,2.0,60,0.00,,FEW035,0.00,842.00,VWS V14.01,2013-09-29 16:52:00,
2013-09-29 12:55:00,85.0,69.6,29.91,NNE,25,1.0,6.0,60,0.00,,CLR,0.00,874.00,VWS V14.01,2013-09-29 16:55:00,
2013-09-29 12:57:00,84.8,69.9,29.91,NNE,24,0.0,2.0,61,0.00,,FEW035,0.00,837.00,VWS V14.01,2013-09-29 16:57:00,
2013-09-29 13:00:00,85.3,70.8,29.91,NNE,21,4.0,5.0,62,0.00,,CLR,0.00,786.00,VWS V14.01,2013-09-29 17:00:00,
2013-09-29 13:02:00,85.3,70.8,29.91,NNE,33,3.0,5.0,62,0.00,,FEW035,0.00,803.00,VWS V14.01,2013-09-29 17:02:00,
2013-09-29 13:05:00,85.0,70.5,29.91,NE,34,0.0,5.0,62,0.00,,CLR,0.00,824.00,VWS V14.01,2013-09-29 17:05:00,
2013-09-29 13:07:00,85.2,69.8,29.91,East,100,2.0,9.0,60,0.00,,FEW035,0.00,823.00,VWS V14.01,2013-09-29 17:07:00,
2013-09-29 13:10:00,85.6,70.1,29.91,NE,53,3.0,9.0,60,0.00,,CLR,0.00,819.00,VWS V14.01,2013-09-29 17:10:00,
2013-09-29 13:12:00,85.8,70.3,29.90,ENE,74,6.0,9.0,60,0.00,,FEW035,0.00,821.00,VWS V14.01,2013-09-29 17:12:00,
2013-09-29 13:15:00,85.5,70.5,29.90,ENE,69,3.0,9.0,61,0.00,,CLR,0.00,826.00,VWS V14.01,2013-09-29 17:15:00,
2013-09-29 13:17:00,85.4,70.4,29.90,ENE,69,2.0,3.0,61,0.00,,FEW035,0.00,856.00,VWS V14.01,2013-09-29 17:17:00,
2013-09-29 13:20:00,85.2,69.8,29.90,ENE,61,0.0,5.0,60,0.00,,CLR,0.00,896.00,VWS V14.01,2013-09-29 17:20:00,
2013-09-29 13:22:00,85.6,70.1,29.90,ENE,61,1.0,1.0,60,0.00,,FEW035,0.00,877.00,VWS V14.01,2013-09-29 17:22:00,
2013-09-29 13:25:00,85.4,70.4,29.90,ENE,71,5.0,10.0,61,0.00,,CLR,0.00,909.00,VWS V14.01,2013-09-29 17:25:00,
2013-09-29 13:27:00,85.2,70.7,29.90,NNE,33,2.0,6.0,62,0.00,,FEW035,0.00,909.00,VWS V14.01,2013-09-29 17:27:00,
2013-09-29 13:30:00,85.0,71.0,29.90,NE,50,0.0,6.0,63,0.00,,CLR,0.00,826.00,VWS V14.01,2013-09-29 17:30:00,
2013-09-29 13:32:00,85.5,70.5,29.90,ESE,108,4.0,5.0,61,0.00,,FEW035,0.00,823.00,VWS V14.01,2013-09-29 17:32:00,
2013-09-29 13:35:00,86.4,71.4,29.89,SSE,148,5.0,5.0,61,0.00,,CLR,0.00,802.00,VWS V14.01,2013-09-29 17:35:00,
2013-09-29 13:37:00,86.8,70.8,29.89,SSE,155,1.0,5.0,59,0.00,,FEW035,0.00,816.00,VWS V14.01,2013-09-29 17:37:00,
2013-09-29 13:40:00,87.4,71.8,29.89,SE,146,1.0,6.0,60,0.00,,CLR,0.00,838.00,VWS V14.01,2013-09-29 17:40:00,
2013-09-29 13:42:00,87.5,70.9,29.89,NNE,30,4.0,4.0,58,0.00,,FEW035,0.00,838.00,VWS V14.01,2013-09-29 17:42:00,
2013-09-29 13:45:00,85.4,69.9,29.89,NNE,24,3.0,9.0,60,0.00,,CLR,0.00,828.00,VWS V14.01,2013-09-29 17:45:00,
2013-09-29 13:47:00,85.2,70.2,29.88,NE,50,3.0,6.0,61,0.00,,FEW035,0.00,896.00,VWS V14.01,2013-09-29 17:47:00,
2013-09-29 13:50:00,85.1,70.6,29.89,NNE,15,2.0,6.0,62,0.00,,CLR,0.00,213.00,VWS V14.01,2013-09-29 17:50:00,
2013-09-29 13:52:00,84.8,69.9,29.88,NNE,23,0.0,3.0,61,0.00,,FEW035,0.00,227.00,VWS V14.01,2013-09-29 17:52:00,
2013-09-29 13:55:00,85.1,70.2,29.88,NNE,26,0.0,3.0,61,0.00,,CLR,0.00,823.00,VWS V14.01,2013-09-29 17:55:00,
2013-09-29 13:57:00,85.2,70.2,29.88,ENE,69,8.0,10.0,61,0.00,,FEW035,0.00,814.00,VWS V14.01,2013-09-29 17:57:00,
2013-09-29 14:00:00,85.4,70.9,29.88,ESE,103,2.0,10.0,62,0.00,,CLR,0.00,803.00,VWS V14.01,2013-09-29 18:00:00,
2013-09-29 14:02:00,86.1,70.6,29.88,SE,128,4.0,7.0,60,0.00,,FEW035,0.00,800.00,VWS V14.01,2013-09-29 18:02:00,
2013-09-29 14:05:00,86.1,70.1,29.89,NNE,32,2.0,7.0,59,0.00,,CLR,0.00,814.00,VWS V14.01,2013-09-29 18:05:00,
2013-09-29 14:07:00,85.9,70.4,29.89,ENE,59,4.0,6.0,60,0.00,,FEW035,0.00,819.00,VWS V14.01,2013-09-29 18:07:00,
2013-09-29 14:10:00,86.0,70.5,29.88,ENE,61,2.0,7.0,60,0.00,,CLR,0.00,877.00,VWS V14.01,2013-09-29 18:10:00,
2013-09-29 14:12:00,85.9,70.9,29.88,ENE,71,2.0,4.0,61,0.00,,FEW035,0.00,842.00,VWS V14.01,2013-09-29 18:12:00,
2013-09-29 14:15:00,86.4,71.8,29.88,East,96,2.0,5.0,62,0.00,,CLR,0.00,849.00,VWS V14.01,2013-09-29 18:15:00,
2013-09-29 14:17:00,87.1,71.5,29.88,East,101,4.0,6.0,60,0.00,,FEW035,0.00,854.00,VWS V14.01,2013-09-29 18:17:00,
2013-09-29 14:20:00,86.3,70.8,29.88,NNE,24,2.0,6.0,60,0.00,,CLR,0.00,861.00,VWS V14.01,2013-09-29 18:20:00,
2013-09-29 14:22:00,85.7,70.7,29.88,NNE,28,1.0,4.0,61,0.00,,FEW035,0.00,861.00,VWS V14.01,2013-09-29 18:22:00,
2013-09-29 14:25:00,85.8,70.8,29.88,East,84,3.0,10.0,61,0.00,,CLR,0.00,272.00,VWS V14.01,2013-09-29 18:25:00,
2013-09-29 14:27:00,85.9,70.9,29.88,ESE,107,3.0,5.0,61,0.00,,FEW035,0.00,877.00,VWS V14.01,2013-09-29 18:27:00,
2013-09-29 14:30:00,86.2,70.2,29.88,East,98,4.0,8.0,59,0.00,,CLR,0.00,863.00,VWS V14.01,2013-09-29 18:30:00,
2013-09-29 14:32:00,86.5,71.0,29.87,ENE,67,3.0,5.0,60,0.00,,FEW035,0.00,856.00,VWS V14.01,2013-09-29 18:32:00,
2013-09-29 14:35:00,86.4,70.9,29.87,East,80,1.0,10.0,60,0.00,,CLR,0.00,831.00,VWS V14.01,2013-09-29 18:35:00,
2013-09-29 14:37:00,86.6,71.6,29.87,ENE,77,4.0,8.0,61,0.00,,FEW035,0.00,844.00,VWS V14.01,2013-09-29 18:37:00,
2013-09-29 14:40:00,85.9,71.4,29.87,NNE,22,0.0,8.0,62,0.00,,CLR,0.00,772.00,VWS V14.01,2013-09-29 18:40:00,
2013-09-29 14:42:00,86.0,71.0,29.87,ESE,117,0.0,6.0,61,0.00,,FEW035,0.00,202.00,VWS V14.01,2013-09-29 18:42:00,
2013-09-29 14:45:00,86.4,70.9,29.87,NE,48,4.0,6.0,60,0.00,,CLR,0.00,207.00,VWS V14.01,2013-09-29 18:45:00,
2013-09-29 14:47:00,85.9,70.4,29.86,NE,34,3.0,6.0,60,0.00,,FEW035,0.00,810.00,VWS V14.01,2013-09-29 18:47:00,
2013-09-29 14:50:00,85.6,71.1,29.86,ENE,74,2.0,7.0,62,0.00,,CLR,0.00,819.00,VWS V14.01,2013-09-29 18:50:00,
2013-09-29 14:52:00,85.6,71.6,29.86,NNE,27,3.0,4.0,63,0.00,,FEW035,0.00,183.00,VWS V14.01,2013-09-29 18:52:00,
2013-09-29 14:55:00,85.0,70.5,29.86,NNE,29,3.0,7.0,62,0.00,,CLR,0.00,766.00,VWS V14.01,2013-09-29 18:55:00,
2013-09-29 14:57:00,85.1,71.1,29.86,NNE,22,6.0,6.0,63,0.00,,FEW035,0.00,675.00,VWS V14.01,2013-09-29 18:57:00,
2013-09-29 15:00:00,85.1,70.6,29.86,ENE,61,4.0,7.0,62,0.00,,CLR,0.00,722.00,VWS V14.01,2013-09-29 19:00:00,
2013-09-29 15:02:00,85.1,70.6,29.86,NE,53,1.0,4.0,62,0.00,,FEW035,0.00,726.00,VWS V14.01,2013-09-29 19:02:00,
2013-09-29 15:05:00,85.9,70.9,29.86,ENE,65,3.0,8.0,61,0.00,,CLR,0.00,698.00,VWS V14.01,2013-09-29 19:05:00,
2013-09-29 15:07:00,85.7,70.2,29.86,East,90,5.0,5.0,60,0.00,,FEW035,0.00,700.00,VWS V14.01,2013-09-29 19:07:00,
2013-09-29 15:10:00,85.8,71.8,29.86,ESE,109,1.0,5.0,63,0.00,,CLR,0.00,719.00,VWS V14.01,2013-09-29 19:10:00,
2013-09-29 15:12:00,86.1,72.0,29.86,East,82,4.0,6.0,63,0.00,,FEW035,0.00,712.00,VWS V14.01,2013-09-29 19:12:00,
2013-09-29 15:15:00,85.8,71.3,29.86,NE,39,5.0,6.0,62,0.00,,CLR,0.00,714.00,VWS V14.01,2013-09-29 19:15:00,
2013-09-29 15:17:00,85.9,71.4,29.86,ENE,74,6.0,10.0,62,0.00,,FEW035,0.00,712.00,VWS V14.01,2013-09-29 19:17:00,
2013-09-29 15:20:00,85.8,70.3,29.85,ENE,59,6.0,10.0,60,0.00,,CLR,0.00,619.00,VWS V14.01,2013-09-29 19:20:00,